Time;durP1;ratioP1;P1;durP2;ratioP2;P2;SDS_P1;SDS_P2;PMS_P1;PMS_P2;Temp;Humidity;BMP_temperature;BMP_pressure;BME280_temperature;BME280_humidity;BME280_pressure;Samples;Min_cycle;Max_cycle;Signal;HPM_P1;HPM_P2
2022/04/14 00:01:44;;;;;;;4.57;3.55;;;;;;;;;;5105171;28;20230;-67
2022/04/14 00:04:10;;;;;;;4.38;3.40;;;;;;;;;;5105364;28;20200;-67
2022/04/14 00:06:37;;;;;;;6.00;3.60;;;;;;;;;;5104826;28;20269;-66
2022/04/14 00:09:03;;;;;;;4.65;3.20;;;;;;;;;;5105082;28;20204;-67
2022/04/14 00:11:29;;;;;;;4.03;3.63;;;;;;;;;;5105156;28;20219;-66
2022/04/14 00:13:56;;;;;;;4.00;3.65;;;;;;;;;;5105076;28;20200;-66
2022/04/14 00:16:24;;;;;;;5.57;3.88;;;;;;;;;;5104862;28;20526;-67
2022/04/14 00:18:50;;;;;;;7.32;3.40;;;;;;;;;;5104942;28;20236;-67
2022/04/14 00:21:17;;;;;;;4.10;3.70;;;;;;;;;;5104888;28;20199;-67
2022/04/14 00:23:44;;;;;;;7.93;3.80;;;;;;;;;;5104992;28;20561;-67
2022/04/14 00:26:10;;;;;;;4.90;3.78;;;;;;;;;;5104687;28;20499;-67
2022/04/14 00:28:36;;;;;;;4.10;3.58;;;;;;;;;;5104760;28;20200;-66
2022/04/14 00:31:04;;;;;;;3.97;3.28;;;;;;;;;;5104793;28;20219;-66
2022/04/14 00:33:31;;;;;;;3.88;3.50;;;;;;;;;;5104579;28;20196;-66
2022/04/14 00:35:58;;;;;;;4.53;4.10;;;;;;;;;;5104334;28;20364;-66
2022/04/14 00:38:24;;;;;;;7.93;3.97;;;;;;;;;;5104744;28;20234;-66
2022/04/14 00:40:52;;;;;;;6.18;3.42;;;;;;;;;;5104622;28;20195;-67
2022/04/14 00:43:19;;;;;;;4.03;3.72;;;;;;;;;;5104347;28;20230;-66
2022/04/14 00:45:46;;;;;;;3.83;3.53;;;;;;;;;;5104395;28;20203;-66
2022/04/14 00:48:13;;;;;;;8.13;3.60;;;;;;;;;;5104158;28;20261;-65
2022/04/14 00:50:41;;;;;;;8.27;3.90;;;;;;;;;;5104235;28;20238;-66
2022/04/14 00:53:07;;;;;;;3.38;3.08;;;;;;;;;;5103420;28;20195;-66
2022/04/14 00:55:33;;;;;;;5.75;3.53;;;;;;;;;;5104539;28;20421;-66
2022/04/14 00:57:59;;;;;;;6.18;3.60;;;;;;;;;;5103967;28;20499;-65
2022/04/14 01:00:26;;;;;;;5.22;3.33;;;;;;;;;;5104067;28;20431;-66
2022/04/14 01:02:52;;;;;;;3.53;3.33;;;;;;;;;;5103943;28;20222;-67
2022/04/14 01:05:19;;;;;;;3.75;3.30;;;;;;;;;;5104084;28;20216;-67
2022/04/14 01:07:47;;;;;;;5.22;3.33;;;;;;;;;;5103661;28;20262;-67
2022/04/14 01:10:13;;;;;;;5.85;3.38;;;;;;;;;;5104039;28;20462;-67
2022/04/14 01:12:40;;;;;;;6.47;3.55;;;;;;;;;;5103916;28;20429;-66
2022/04/14 01:15:11;;;;;;;7.00;3.88;;;;;;;;;;5103900;28;20249;-66
2022/04/14 01:17:37;;;;;;;5.47;3.70;;;;;;;;;;5103485;28;20249;-66
2022/04/14 01:20:04;;;;;;;7.85;3.78;;;;;;;;;;5103931;28;20199;-67
2022/04/14 01:22:31;;;;;;;4.78;3.70;;;;;;;;;;5103766;28;20204;-66
2022/04/14 01:24:59;;;;;;;3.38;3.17;;;;;;;;;;5103724;28;20523;-66
2022/04/14 01:27:26;;;;;;;5.10;3.58;;;;;;;;;;5103392;28;20245;-66
2022/04/14 01:29:52;;;;;;;4.00;3.60;;;;;;;;;;5103319;28;20249;-66
2022/04/14 01:32:19;;;;;;;5.00;4.13;;;;;;;;;;5103517;28;20517;-66
2022/04/14 01:34:46;;;;;;;5.35;4.03;;;;;;;;;;5103604;28;20196;-66
2022/04/14 01:37:12;;;;;;;4.95;4.00;;;;;;;;;;5102490;28;20196;-66
2022/04/14 01:39:39;;;;;;;6.28;4.43;;;;;;;;;;5103328;28;20196;-66
2022/04/14 01:42:06;;;;;;;7.97;4.05;;;;;;;;;;5103251;28;20191;-66
2022/04/14 01:44:33;;;;;;;6.45;3.83;;;;;;;;;;5103206;28;20202;-66
2022/04/14 01:46:59;;;;;;;11.55;4.30;;;;;;;;;;5103367;28;20206;-66
2022/04/14 01:49:25;;;;;;;6.50;4.18;;;;;;;;;;5103308;28;20203;-66
2022/04/14 01:51:52;;;;;;;5.05;4.00;;;;;;;;;;5103399;28;20223;-66
2022/04/14 01:54:18;;;;;;;7.15;4.30;;;;;;;;;;5103134;28;20496;-66
2022/04/14 01:56:45;;;;;;;7.88;4.32;;;;;;;;;;5102732;28;20203;-66
2022/04/14 01:59:13;;;;;;;5.40;4.10;;;;;;;;;;5103268;28;20196;-66
2022/04/14 02:01:40;;;;;;;4.75;4.30;;;;;;;;;;5102868;28;20380;-66
2022/04/14 02:04:07;;;;;;;4.40;3.42;;;;;;;;;;5102803;28;20204;-66
2022/04/14 02:06:33;;;;;;;5.90;4.18;;;;;;;;;;5103043;28;20290;-66
2022/04/14 02:09:00;;;;;;;4.93;3.85;;;;;;;;;;5102835;28;20503;-66
2022/04/14 02:11:26;;;;;;;10.23;3.88;;;;;;;;;;5102656;28;20387;-66
2022/04/14 02:13:52;;;;;;;4.32;4.03;;;;;;;;;;5102949;28;20196;-66
2022/04/14 02:16:20;;;;;;;6.10;4.10;;;;;;;;;;5102531;28;20203;-66
2022/04/14 02:18:46;;;;;;;7.10;3.90;;;;;;;;;;5102820;28;20249;-66
2022/04/14 02:21:12;;;;;;;5.75;4.45;;;;;;;;;;5102809;28;20198;-66
2022/04/14 02:23:38;;;;;;;5.40;4.32;;;;;;;;;;5102532;28;20429;-66
2022/04/14 02:26:05;;;;;;;4.65;4.00;;;;;;;;;;5102347;28;20196;-66
2022/04/14 02:28:31;;;;;;;10.35;3.85;;;;;;;;;;5102773;28;20203;-66
2022/04/14 02:30:57;;;;;;;8.73;4.13;;;;;;;;;;5102676;28;20377;-66
2022/04/14 02:33:25;;;;;;;4.30;3.90;;;;;;;;;;5102555;28;20203;-66
2022/04/14 02:35:51;;;;;;;5.25;4.85;;;;;;;;;;5102676;28;20242;-66
2022/04/14 02:38:17;;;;;;;5.68;3.88;;;;;;;;;;5102347;28;20203;-66
2022/04/14 02:40:44;;;;;;;9.10;4.68;;;;;;;;;;5102655;28;20203;-66
2022/04/14 02:43:10;;;;;;;5.88;4.38;;;;;;;;;;5102594;28;20210;-66
2022/04/14 02:45:36;;;;;;;5.55;4.20;;;;;;;;;;5102605;28;20542;-66
2022/04/14 02:48:02;;;;;;;5.28;4.03;;;;;;;;;;5102182;28;20507;-66
2022/04/14 02:50:30;;;;;;;6.47;4.03;;;;;;;;;;5102357;28;20199;-66
2022/04/14 02:52:56;;;;;;;6.57;4.30;;;;;;;;;;5102223;28;20196;-66
2022/04/14 02:55:23;;;;;;;5.13;4.35;;;;;;;;;;5102591;28;20518;-66
2022/04/14 02:57:49;;;;;;;6.03;4.05;;;;;;;;;;5102137;28;20202;-66
2022/04/14 03:00:16;;;;;;;8.52;4.47;;;;;;;;;;5102471;28;20203;-66
2022/04/14 03:02:43;;;;;;;4.57;4.18;;;;;;;;;;5102355;28;20427;-66
2022/04/14 03:05:09;;;;;;;5.05;4.15;;;;;;;;;;5102290;28;20265;-66
2022/04/14 03:07:37;;;;;;;4.72;4.18;;;;;;;;;;5102360;28;20195;-66
2022/04/14 03:10:04;;;;;;;4.22;3.83;;;;;;;;;;5102285;28;20521;-66
2022/04/14 03:12:39;;;;;;;6.10;4.20;;;;;;;;;;5102100;28;20286;-66
2022/04/14 03:15:06;;;;;;;6.15;4.22;;;;;;;;;;5102207;28;20203;-66
2022/04/14 03:17:32;;;;;;;5.93;4.15;;;;;;;;;;5105562;28;20202;-66
2022/04/14 03:19:58;;;;;;;4.55;4.18;;;;;;;;;;5105920;28;20526;-66
2022/04/14 03:22:25;;;;;;;5.20;4.70;;;;;;;;;;5106089;28;20203;-66
2022/04/14 03:24:55;;;;;;;5.57;3.85;;;;;;;;;;5106082;28;20362;-66
2022/04/14 03:27:21;;;;;;;5.78;3.95;;;;;;;;;;5105851;28;20495;-66
2022/04/14 03:29:48;;;;;;;4.32;4.00;;;;;;;;;;5106369;28;20354;-66
2022/04/14 03:32:14;;;;;;;5.70;4.40;;;;;;;;;;5105785;28;20211;-66
2022/04/14 03:34:40;;;;;;;4.57;4.18;;;;;;;;;;5105769;28;20504;-66
2022/04/14 03:37:07;;;;;;;5.80;4.25;;;;;;;;;;5105942;28;20454;-66
2022/04/14 03:39:33;;;;;;;7.35;4.63;;;;;;;;;;5105605;28;20202;-66
2022/04/14 03:42:01;;;;;;;7.15;4.53;;;;;;;;;;5105627;28;20207;-66
2022/04/14 03:44:27;;;;;;;4.57;4.05;;;;;;;;;;5105726;28;20403;-66
2022/04/14 03:46:53;;;;;;;4.47;4.07;;;;;;;;;;5105433;28;20491;-66
2022/04/14 03:49:19;;;;;;;4.38;4.07;;;;;;;;;;5105386;28;20203;-66
2022/04/14 03:51:46;;;;;;;6.90;4.15;;;;;;;;;;5105605;28;20220;-66
2022/04/14 03:54:12;;;;;;;6.28;4.47;;;;;;;;;;5105691;28;20200;-66
2022/04/14 03:56:38;;;;;;;7.07;4.00;;;;;;;;;;5105162;28;20205;-66
2022/04/14 03:59:06;;;;;;;4.75;3.80;;;;;;;;;;5105378;28;20511;-66
2022/04/14 04:01:32;;;;;;;6.75;4.20;;;;;;;;;;5105160;28;20515;-66
2022/04/14 04:03:59;;;;;;;8.00;4.53;;;;;;;;;;5105275;28;20240;-66
2022/04/14 04:06:25;;;;;;;4.75;4.35;;;;;;;;;;5105141;28;20554;-66
2022/04/14 04:08:51;;;;;;;6.70;4.88;;;;;;;;;;5105245;28;20503;-66
2022/04/14 04:11:17;;;;;;;5.75;4.45;;;;;;;;;;5105183;28;20568;-66
2022/04/14 04:13:44;;;;;;;6.95;4.05;;;;;;;;;;5105104;28;20196;-66
2022/04/14 04:16:11;;;;;;;6.32;4.57;;;;;;;;;;5104831;28;20200;-66
2022/04/14 04:18:38;;;;;;;5.57;4.10;;;;;;;;;;5105147;28;20202;-65
2022/04/14 04:21:04;;;;;;;9.52;4.40;;;;;;;;;;5105260;28;20191;-65
2022/04/14 04:23:30;;;;;;;7.85;4.20;;;;;;;;;;5104995;28;20381;-66
2022/04/14 04:25:57;;;;;;;4.50;4.05;;;;;;;;;;5104847;28;20203;-65
2022/04/14 04:28:30;;;;;;;5.30;4.30;;;;;;;;;;5103560;28;20195;-65
2022/04/14 04:30:56;;;;;;;5.53;4.05;;;;;;;;;;5104658;28;20196;-65
2022/04/14 04:33:24;;;;;;;7.28;4.20;;;;;;;;;;5104925;28;20207;-65
2022/04/14 04:35:50;;;;;;;6.43;4.93;;;;;;;;;;5104969;28;20204;-65
2022/04/14 04:38:16;;;;;;;11.10;4.93;;;;;;;;;;5104521;28;20309;-66
2022/04/14 04:40:43;;;;;;;6.57;4.60;;;;;;;;;;5104725;28;20203;-66
2022/04/14 04:43:09;;;;;;;5.70;4.60;;;;;;;;;;5105014;28;20203;-65
2022/04/14 04:45:35;;;;;;;5.40;4.63;;;;;;;;;;5104429;28;20210;-65
2022/04/14 04:48:02;;;;;;;6.68;4.43;;;;;;;;;;5104401;28;20196;-65
2022/04/14 04:50:29;;;;;;;6.60;4.70;;;;;;;;;;5104353;28;20219;-65
2022/04/14 04:52:56;;;;;;;6.75;4.07;;;;;;;;;;5104298;28;20415;-65
2022/04/14 04:55:22;;;;;;;5.95;4.35;;;;;;;;;;5104274;28;20423;-65
2022/04/14 04:57:48;;;;;;;6.03;4.40;;;;;;;;;;5103916;28;20195;-65
2022/04/14 05:00:15;;;;;;;6.28;4.75;;;;;;;;;;5104074;28;20257;-65
2022/04/14 05:02:41;;;;;;;8.70;4.75;;;;;;;;;;5104361;28;20203;-65
2022/04/14 05:05:08;;;;;;;4.93;4.40;;;;;;;;;;5104188;28;20424;-65
2022/04/14 05:07:36;;;;;;;10.77;4.90;;;;;;;;;;5103905;28;20210;-65
2022/04/14 05:10:02;;;;;;;6.10;4.60;;;;;;;;;;5104116;28;20196;-65
2022/04/14 05:12:28;;;;;;;10.40;5.55;;;;;;;;;;5103833;28;20220;-65
2022/04/14 05:14:54;;;;;;;6.95;5.13;;;;;;;;;;5104090;28;20522;-65
2022/04/14 05:17:21;;;;;;;8.98;4.70;;;;;;;;;;5103749;28;20419;-66
2022/04/14 05:19:47;;;;;;;7.70;4.85;;;;;;;;;;5103770;28;20196;-65
2022/04/14 05:22:13;;;;;;;10.63;5.63;;;;;;;;;;5103648;28;20233;-65
2022/04/14 05:24:41;;;;;;;6.22;5.63;;;;;;;;;;5103689;28;20254;-65
2022/04/14 05:27:08;;;;;;;9.82;5.18;;;;;;;;;;5090653;28;20528;-65
2022/04/14 05:29:36;;;;;;;11.80;5.13;;;;;;;;;;5088443;28;20490;-57
2022/04/14 05:32:02;;;;;;;10.68;5.60;;;;;;;;;;5087925;28;20269;-58
2022/04/14 05:34:28;;;;;;;10.85;5.28;;;;;;;;;;5096565;28;20211;-57
2022/04/14 05:36:54;;;;;;;8.93;5.70;;;;;;;;;;5096752;28;20441;-56
2022/04/14 05:39:21;;;;;;;11.55;5.15;;;;;;;;;;5096814;28;20207;-57
2022/04/14 05:41:48;;;;;;;10.02;5.10;;;;;;;;;;5097129;28;20204;-57
2022/04/14 05:44:16;;;;;;;9.55;4.90;;;;;;;;;;5097142;28;20207;-56
2022/04/14 05:46:43;;;;;;;7.35;5.20;;;;;;;;;;5096876;28;20221;-56
2022/04/14 05:49:09;;;;;;;9.18;4.95;;;;;;;;;;5096331;28;20208;-56
2022/04/14 05:51:35;;;;;;;12.77;5.68;;;;;;;;;;5096276;28;20223;-56
2022/04/14 05:54:02;;;;;;;7.00;5.00;;;;;;;;;;5093314;28;20213;-58
2022/04/14 05:56:28;;;;;;;12.52;5.63;;;;;;;;;;5097321;28;20454;-57
2022/04/14 05:58:55;;;;;;;8.05;5.55;;;;;;;;;;5098362;28;20207;-56
2022/04/14 06:01:22;;;;;;;12.85;5.15;;;;;;;;;;5097831;28;20222;-59
2022/04/14 06:03:48;;;;;;;6.88;5.18;;;;;;;;;;5097626;28;20208;-56
2022/04/14 06:06:14;;;;;;;7.88;5.25;;;;;;;;;;5091977;28;20231;-58
2022/04/14 06:08:40;;;;;;;16.40;6.05;;;;;;;;;;5076799;28;20215;-58
2022/04/14 06:11:09;;;;;;;12.00;6.07;;;;;;;;;;5098743;28;20248;-58
2022/04/14 06:13:35;;;;;;;14.38;6.30;;;;;;;;;;5099679;28;20220;-57
2022/04/14 06:16:03;;;;;;;15.38;6.22;;;;;;;;;;5097364;28;20237;-58
2022/04/14 06:18:29;;;;;;;25.10;6.65;;;;;;;;;;5097161;28;20208;-58
2022/04/14 06:20:55;;;;;;;13.57;6.22;;;;;;;;;;5097099;28;20212;-56
2022/04/14 06:23:21;;;;;;;18.08;5.88;;;;;;;;;;5097679;28;20245;-58
2022/04/14 06:25:50;;;;;;;11.70;6.38;;;;;;;;;;5098597;28;20215;-58
2022/04/14 06:28:16;;;;;;;12.75;6.35;;;;;;;;;;5098463;28;20272;-58
2022/04/14 06:30:42;;;;;;;12.15;5.80;;;;;;;;;;5097602;28;20215;-57
2022/04/14 06:33:10;;;;;;;13.95;5.93;;;;;;;;;;5097467;28;20388;-58
2022/04/14 06:35:36;;;;;;;13.25;6.18;;;;;;;;;;5096764;28;20261;-57
2022/04/14 06:38:02;;;;;;;14.20;6.35;;;;;;;;;;5095734;28;20211;-57
2022/04/14 06:40:29;;;;;;;13.32;5.80;;;;;;;;;;5096996;28;20207;-55
2022/04/14 06:42:55;;;;;;;14.77;5.80;;;;;;;;;;5096679;28;20204;-57
2022/04/14 06:45:21;;;;;;;14.18;5.85;;;;;;;;;;5097672;28;20545;-59
2022/04/14 06:47:48;;;;;;;6.35;5.45;;;;;;;;;;5096744;28;20203;-57
2022/04/14 06:50:15;;;;;;;11.77;6.40;;;;;;;;;;5096125;28;20372;-57
2022/04/14 06:52:41;;;;;;;11.35;6.22;;;;;;;;;;5100766;28;20227;-56
2022/04/14 06:55:08;;;;;;;14.05;5.47;;;;;;;;;;5100854;28;20212;-56
2022/04/14 06:57:38;;;;;;;17.10;6.30;;;;;;;;;;5101315;28;20519;-58
2022/04/14 07:00:05;;;;;;;11.05;5.93;;;;;;;;;;5100886;28;20215;-62
2022/04/14 07:02:32;;;;;;;7.50;5.68;;;;;;;;;;5100731;28;20534;-59
2022/04/14 07:04:59;;;;;;;12.07;5.97;;;;;;;;;;5099870;28;20307;-59
2022/04/14 07:07:26;;;;;;;12.77;6.95;;;;;;;;;;5099989;28;20199;-59
2022/04/14 07:09:52;;;;;;;10.10;6.65;;;;;;;;;;5099828;28;20212;-60
2022/04/14 07:12:19;;;;;;;12.70;6.85;;;;;;;;;;5100628;28;20223;-59
2022/04/14 07:14:45;;;;;;;17.98;8.50;;;;;;;;;;5100433;28;20542;-60
2022/04/14 07:17:11;;;;;;;13.40;7.18;;;;;;;;;;5100465;28;20380;-62
2022/04/14 07:19:37;;;;;;;12.13;7.60;;;;;;;;;;5100158;28;20225;-61
2022/04/14 07:22:04;;;;;;;18.13;7.90;;;;;;;;;;5100612;28;20200;-62
2022/04/14 07:24:31;;;;;;;12.52;7.88;;;;;;;;;;5100151;28;20227;-62
2022/04/14 07:26:58;;;;;;;11.88;7.93;;;;;;;;;;5099918;28;20214;-62
2022/04/14 07:29:24;;;;;;;18.42;9.00;;;;;;;;;;5099656;28;20214;-62
2022/04/14 07:31:52;;;;;;;18.67;8.65;;;;;;;;;;5099373;28;20211;-62
2022/04/14 07:34:18;;;;;;;20.60;10.02;;;;;;;;;;5099626;28;20207;-60
2022/04/14 07:36:45;;;;;;;18.00;10.32;;;;;;;;;;5099488;28;20208;-62
2022/04/14 07:39:11;;;;;;;19.25;10.48;;;;;;;;;;5099751;28;20220;-62
2022/04/14 07:41:39;;;;;;;24.48;13.30;;;;;;;;;;5099899;28;20523;-62
2022/04/14 07:44:06;;;;;;;21.98;13.70;;;;;;;;;;5099486;28;20453;-62
2022/04/14 07:46:35;;;;;;;22.08;14.30;;;;;;;;;;5099374;28;20208;-62
2022/04/14 07:49:01;;;;;;;30.02;17.48;;;;;;;;;;5099343;28;20378;-63
2022/04/14 07:51:28;;;;;;;24.80;17.85;;;;;;;;;;5098799;28;20234;-62
2022/04/14 07:53:54;;;;;;;29.77;17.92;;;;;;;;;;5098950;28;20239;-62
2022/04/14 07:56:22;;;;;;;21.77;17.52;;;;;;;;;;5098919;28;20211;-62
2022/04/14 07:58:49;;;;;;;29.90;19.77;;;;;;;;;;5098765;28;20519;-62
2022/04/14 08:01:18;;;;;;;29.75;19.10;;;;;;;;;;5098077;28;20303;-61
2022/04/14 08:03:46;;;;;;;28.13;20.75;;;;;;;;;;5098700;28;20208;-62
2022/04/14 08:06:13;;;;;;;32.17;20.83;;;;;;;;;;5098638;28;20353;-62
2022/04/14 08:08:39;;;;;;;36.03;20.00;;;;;;;;;;5098665;28;20207;-61
2022/04/14 08:11:05;;;;;;;30.83;20.13;;;;;;;;;;5098674;28;20208;-62
2022/04/14 08:13:36;;;;;;;37.58;20.88;;;;;;;;;;5098428;28;20458;-62
2022/04/14 08:16:06;;;;;;;29.35;18.08;;;;;;;;;;5098537;28;20462;-62
2022/04/14 08:18:32;;;;;;;22.15;18.42;;;;;;;;;;5098487;28;20215;-62
2022/04/14 08:20:59;;;;;;;26.98;18.95;;;;;;;;;;5098924;28;20212;-62
2022/04/14 08:23:25;;;;;;;26.50;19.48;;;;;;;;;;5098594;28;20208;-62
2022/04/14 08:25:51;;;;;;;26.27;19.50;;;;;;;;;;5098376;28;20208;-62
2022/04/14 08:28:18;;;;;;;29.77;17.98;;;;;;;;;;5097853;28;20451;-62
2022/04/14 08:30:44;;;;;;;29.75;18.92;;;;;;;;;;5098289;28;20665;-62
2022/04/14 08:33:12;;;;;;;30.58;19.35;;;;;;;;;;5097681;28;20223;-62
2022/04/14 08:35:38;;;;;;;27.95;19.25;;;;;;;;;;5098268;28;20245;-62
2022/04/14 08:38:06;;;;;;;29.73;19.90;;;;;;;;;;5097813;28;20307;-62
2022/04/14 08:40:34;;;;;;;27.48;19.73;;;;;;;;;;5098302;28;20435;-61
2022/04/14 08:43:01;;;;;;;29.63;19.08;;;;;;;;;;5097796;28;20572;-62
2022/04/14 08:45:31;;;;;;;32.20;19.35;;;;;;;;;;5098402;28;20208;-62
2022/04/14 08:47:58;;;;;;;33.38;19.60;;;;;;;;;;5098189;28;20515;-62
2022/04/14 08:50:26;;;;;;;26.38;19.60;;;;;;;;;;5099062;28;20261;-63
2022/04/14 08:52:53;;;;;;;31.10;17.83;;;;;;;;;;5098696;28;20232;-63
2022/04/14 08:55:19;;;;;;;28.90;18.38;;;;;;;;;;5098704;28;20218;-62
2022/04/14 08:57:45;;;;;;;25.02;17.17;;;;;;;;;;5098058;28;20534;-62
2022/04/14 09:00:13;;;;;;;33.70;20.38;;;;;;;;;;5098422;28;20412;-63
2022/04/14 09:02:43;;;;;;;29.05;18.10;;;;;;;;;;5098205;28;20478;-63
2022/04/14 09:05:10;;;;;;;23.10;17.10;;;;;;;;;;5097899;28;20219;-63
2022/04/14 09:07:38;;;;;;;29.63;16.60;;;;;;;;;;5097634;28;20444;-62
2022/04/14 09:10:05;;;;;;;29.45;17.42;;;;;;;;;;5097938;28;20436;-62
2022/04/14 09:12:31;;;;;;;28.38;16.70;;;;;;;;;;5097918;28;20223;-62
2022/04/14 09:14:58;;;;;;;25.73;16.73;;;;;;;;;;5096568;28;20508;-62
2022/04/14 09:17:24;;;;;;;26.98;15.90;;;;;;;;;;5097535;28;20211;-63
2022/04/14 09:19:50;;;;;;;23.08;16.30;;;;;;;;;;5097814;28;20246;-62
2022/04/14 09:22:17;;;;;;;28.88;16.55;;;;;;;;;;5098327;28;20588;-62
2022/04/14 09:24:45;;;;;;;28.30;17.17;;;;;;;;;;5098228;28;20632;-63
2022/04/14 09:27:23;;;;;;;21.60;16.35;;;;;;;;;;5097275;28;20208;-63
2022/04/14 09:29:49;;;;;;;25.95;15.15;;;;;;;;;;5097758;28;20209;-63
2022/04/14 09:32:26;;;;;;;24.25;16.90;;;;;;;;;;5098160;28;20211;-63
2022/04/14 09:34:53;;;;;;;22.85;16.48;;;;;;;;;;5098014;28;20508;-62
2022/04/14 09:37:20;;;;;;;20.60;14.98;;;;;;;;;;5096866;28;20216;-63
2022/04/14 09:39:55;;;;;;;24.08;15.57;;;;;;;;;;5097763;28;20278;-61
2022/04/14 09:42:22;;;;;;;24.48;14.95;;;;;;;;;;5097340;28;20402;-61
2022/04/14 09:44:48;;;;;;;23.17;16.20;;;;;;;;;;5097264;28;20419;-62
2022/04/14 09:47:22;;;;;;;18.02;14.77;;;;;;;;;;5096309;28;20211;-62
2022/04/14 09:49:48;;;;;;;23.20;15.02;;;;;;;;;;5097535;28;20208;-62
2022/04/14 09:52:14;;;;;;;18.27;12.60;;;;;;;;;;5097404;28;20253;-62
2022/04/14 09:54:41;;;;;;;20.27;12.48;;;;;;;;;;5097521;28;20555;-62
2022/04/14 09:57:10;;;;;;;20.83;15.30;;;;;;;;;;5096893;28;20231;-62
2022/04/14 09:59:37;;;;;;;20.55;14.05;;;;;;;;;;5097393;28;20207;-62
2022/04/14 10:02:10;;;;;;;19.75;13.63;;;;;;;;;;5097354;28;20211;-63
2022/04/14 10:04:37;;;;;;;19.20;13.60;;;;;;;;;;5097561;28;20202;-61
2022/04/14 10:07:08;;;;;;;25.25;14.70;;;;;;;;;;5096637;28;20208;-61
2022/04/14 10:09:35;;;;;;;21.42;13.68;;;;;;;;;;5097462;28;20200;-62
2022/04/14 10:12:02;;;;;;;19.05;12.48;;;;;;;;;;5097538;28;20586;-60
2022/04/14 10:14:29;;;;;;;20.73;13.85;;;;;;;;;;5097135;28;20231;-61
2022/04/14 10:16:57;;;;;;;20.65;14.35;;;;;;;;;;5096609;28;20403;-61
2022/04/14 10:19:23;;;;;;;22.63;13.20;;;;;;;;;;5096626;28;20212;-62
2022/04/14 10:21:50;;;;;;;22.77;12.98;;;;;;;;;;5096855;28;20229;-61
2022/04/14 10:24:17;;;;;;;18.67;12.00;;;;;;;;;;5097127;28;20203;-60
2022/04/14 10:26:44;;;;;;;22.08;11.90;;;;;;;;;;5096714;28;20574;-61
2022/04/14 10:29:12;;;;;;;19.90;11.63;;;;;;;;;;5096174;28;20269;-61
2022/04/14 10:31:41;;;;;;;17.85;11.30;;;;;;;;;;5097105;28;20238;-60
2022/04/14 10:34:08;;;;;;;19.27;12.40;;;;;;;;;;5096765;28;20231;-61
2022/04/14 10:36:37;;;;;;;15.82;11.45;;;;;;;;;;5096383;28;20215;-62
2022/04/14 10:39:03;;;;;;;15.63;10.13;;;;;;;;;;5095996;28;20211;-62
2022/04/14 10:41:31;;;;;;;16.67;10.32;;;;;;;;;;5097053;28;20278;-63
2022/04/14 10:44:00;;;;;;;19.83;11.73;;;;;;;;;;5096899;28;20208;-62
2022/04/14 10:46:31;;;;;;;19.73;11.77;;;;;;;;;;5096936;28;20207;-62
2022/04/14 10:49:11;;;;;;;22.83;12.75;;;;;;;;;;5096314;28;20238;-62
2022/04/14 10:51:38;;;;;;;21.52;12.70;;;;;;;;;;5097159;28;20208;-61
2022/04/14 10:54:05;;;;;;;18.98;10.70;;;;;;;;;;5097194;28;20236;-60
2022/04/14 10:56:44;;;;;;;18.63;10.02;;;;;;;;;;5096429;28;20252;-62
2022/04/14 10:59:12;;;;;;;16.77;11.40;;;;;;;;;;5096418;28;20517;-60
2022/04/14 11:01:54;;;;;;;23.08;13.77;;;;;;;;;;5096036;28;20243;-59
2022/04/14 11:04:28;;;;;;;21.90;12.15;;;;;;;;;;5096602;28;20529;-59
2022/04/14 11:06:57;;;;;;;16.25;10.98;;;;;;;;;;5096203;28;20280;-60
2022/04/14 11:09:42;;;;;;;16.75;11.90;;;;;;;;;;5096597;28;20537;-60
2022/04/14 11:12:09;;;;;;;18.20;12.00;;;;;;;;;;5095613;28;20215;-60
2022/04/14 11:14:36;;;;;;;22.33;12.23;;;;;;;;;;5096453;28;20254;-60
2022/04/14 11:17:03;;;;;;;18.15;10.20;;;;;;;;;;5095759;28;20207;-60
2022/04/14 11:19:31;;;;;;;20.20;10.70;;;;;;;;;;5096233;28;20214;-60
2022/04/14 11:22:01;;;;;;;24.63;13.15;;;;;;;;;;5095805;28;20257;-61
2022/04/14 11:24:34;;;;;;;20.23;12.90;;;;;;;;;;5096481;28;20235;-61
2022/04/14 11:27:08;;;;;;;16.27;11.20;;;;;;;;;;5095847;28;20216;-62
2022/04/14 11:29:34;;;;;;;26.05;14.13;;;;;;;;;;5095940;28;20207;-60
2022/04/14 11:32:01;;;;;;;21.58;12.32;;;;;;;;;;5095392;28;20253;-61
2022/04/14 11:34:32;;;;;;;25.08;12.23;;;;;;;;;;5096040;28;20219;-60
2022/04/14 11:36:59;;;;;;;24.10;12.00;;;;;;;;;;5096740;28;20511;-60
2022/04/14 11:39:25;;;;;;;26.02;13.30;;;;;;;;;;5100003;28;20401;-58
2022/04/14 11:41:53;;;;;;;18.85;11.65;;;;;;;;;;5099349;28;20219;-59
2022/04/14 11:44:20;;;;;;;23.33;10.52;;;;;;;;;;5099762;28;20204;-59
2022/04/14 11:46:47;;;;;;;13.38;10.55;;;;;;;;;;5099889;28;20211;-59
2022/04/14 11:49:15;;;;;;;17.83;11.07;;;;;;;;;;5096834;28;20461;-60
2022/04/14 11:51:43;;;;;;;14.02;10.30;;;;;;;;;;5082478;28;20211;-60
2022/04/14 11:54:10;;;;;;;15.88;10.52;;;;;;;;;;5098958;28;20431;-61
2022/04/14 11:56:36;;;;;;;15.20;10.25;;;;;;;;;;5099421;28;20469;-58
2022/04/14 11:59:08;;;;;;;16.10;10.85;;;;;;;;;;5099427;28;20208;-60
2022/04/14 12:01:34;;;;;;;17.13;12.23;;;;;;;;;;5099561;28;20222;-60
2022/04/14 12:04:00;;;;;;;15.80;11.45;;;;;;;;;;5098894;28;20219;-60
2022/04/14 12:06:26;;;;;;;19.63;12.75;;;;;;;;;;5099114;28;20231;-59
2022/04/14 12:08:55;;;;;;;20.27;13.18;;;;;;;;;;5098883;28;20216;-59
2022/04/14 12:11:21;;;;;;;17.35;12.80;;;;;;;;;;5099031;28;20235;-59
2022/04/14 12:13:48;;;;;;;27.52;13.65;;;;;;;;;;5098617;28;20253;-59
2022/04/14 12:16:15;;;;;;;20.77;13.57;;;;;;;;;;5098513;28;20239;-59
2022/04/14 12:18:42;;;;;;;15.38;11.73;;;;;;;;;;5090482;28;20212;-59
2022/04/14 12:21:18;;;;;;;19.20;11.88;;;;;;;;;;5099496;28;20207;-59
2022/04/14 12:23:47;;;;;;;18.65;12.52;;;;;;;;;;5098601;28;20245;-59
2022/04/14 12:26:15;;;;;;;16.92;12.02;;;;;;;;;;5098671;28;20216;-60
2022/04/14 12:28:41;;;;;;;22.15;14.00;;;;;;;;;;5098758;28;20487;-59
2022/04/14 12:31:11;;;;;;;16.65;11.77;;;;;;;;;;5090320;28;20424;-60
2022/04/14 12:33:37;;;;;;;18.63;11.20;;;;;;;;;;5089744;28;20223;-60
2022/04/14 12:36:07;;;;;;;16.67;10.25;;;;;;;;;;5089275;28;20208;-59
2022/04/14 12:38:42;;;;;;;18.23;9.65;;;;;;;;;;5087584;28;20203;-60
2022/04/14 12:41:12;;;;;;;13.23;9.07;;;;;;;;;;5078589;28;20580;-60
2022/04/14 12:43:40;;;;;;;16.63;10.55;;;;;;;;;;5078433;28;20275;-60
2022/04/14 12:46:20;;;;;;;15.20;8.43;;;;;;;;;;5093959;28;20288;-59
2022/04/14 12:48:46;;;;;;;14.80;8.93;;;;;;;;;;5097244;28;20211;-61
2022/04/14 12:51:12;;;;;;;13.77;8.18;;;;;;;;;;5098959;28;20214;-62
2022/04/14 12:53:39;;;;;;;15.13;9.02;;;;;;;;;;5098267;28;20245;-62
2022/04/14 12:56:12;;;;;;;20.75;9.77;;;;;;;;;;5098029;28;20276;-61
2022/04/14 12:58:40;;;;;;;14.57;8.70;;;;;;;;;;5098311;28;20228;-60
2022/04/14 13:01:08;;;;;;;14.68;6.93;;;;;;;;;;5098126;28;20219;-60
2022/04/14 13:03:44;;;;;;;16.70;8.50;;;;;;;;;;5098314;28;20207;-60
2022/04/14 13:06:14;;;;;;;13.88;7.40;;;;;;;;;;5097254;28;20227;-61
2022/04/14 13:08:41;;;;;;;11.10;7.70;;;;;;;;;;5097832;28;20256;-61
2022/04/14 13:11:07;;;;;;;11.57;7.60;;;;;;;;;;5098582;28;20215;-61
2022/04/14 13:13:34;;;;;;;14.27;7.65;;;;;;;;;;5098009;28;20278;-69
2022/04/14 13:16:02;;;;;;;17.35;9.27;;;;;;;;;;5097716;28;20225;-69
2022/04/14 13:18:29;;;;;;;19.60;9.00;;;;;;;;;;5097179;28;20214;-69
2022/04/14 13:20:55;;;;;;;13.55;9.43;;;;;;;;;;5098785;28;20481;-70
2022/04/14 13:23:22;;;;;;;15.18;9.43;;;;;;;;;;5098333;28;20207;-69
2022/04/14 13:25:49;;;;;;;10.88;7.15;;;;;;;;;;5098086;28;20207;-69
2022/04/14 13:28:15;;;;;;;13.82;7.93;;;;;;;;;;5097086;28;20218;-69
2022/04/14 13:30:41;;;;;;;7.72;6.85;;;;;;;;;;5097919;28;20575;-70
2022/04/14 13:33:09;;;;;;;13.60;8.90;;;;;;;;;;5098037;28;20564;-70
2022/04/14 13:35:35;;;;;;;13.30;7.97;;;;;;;;;;5097792;28;20444;-70
2022/04/14 13:38:02;;;;;;;8.88;7.07;;;;;;;;;;5096626;28;20211;-70
2022/04/14 13:40:28;;;;;;;13.57;7.65;;;;;;;;;;5097876;28;20211;-70
2022/04/14 13:42:55;;;;;;;17.23;9.35;;;;;;;;;;5097581;28;20249;-70
2022/04/14 13:45:21;;;;;;;10.50;6.72;;;;;;;;;;5097585;28;20390;-70
2022/04/14 13:47:47;;;;;;;16.10;8.82;;;;;;;;;;5096121;28;20233;-70
2022/04/14 13:50:15;;;;;;;14.82;9.27;;;;;;;;;;5097102;28;20527;-70
2022/04/14 13:52:42;;;;;;;13.88;8.88;;;;;;;;;;5097090;28;20214;-70
2022/04/14 13:55:09;;;;;;;13.40;9.18;;;;;;;;;;5096857;28;20542;-69
2022/04/14 13:57:37;;;;;;;16.80;8.48;;;;;;;;;;5096289;28;20568;-70
2022/04/14 14:00:04;;;;;;;14.65;8.05;;;;;;;;;;5096158;28;20241;-70
2022/04/14 14:02:30;;;;;;;20.77;9.90;;;;;;;;;;5097136;28;20518;-70
2022/04/14 14:04:57;;;;;;;10.02;6.95;;;;;;;;;;5096972;28;20290;-70
2022/04/14 14:07:26;;;;;;;13.70;9.43;;;;;;;;;;5096543;28;20212;-70
2022/04/14 14:09:52;;;;;;;17.08;8.38;;;;;;;;;;5096173;28;20226;-70
2022/04/14 14:12:18;;;;;;;16.10;8.93;;;;;;;;;;5097272;28;20211;-70
2022/04/14 14:14:45;;;;;;;18.10;9.52;;;;;;;;;;5097105;28;20227;-70
2022/04/14 14:17:11;;;;;;;15.25;9.32;;;;;;;;;;5096425;28;20274;-70
2022/04/14 14:19:38;;;;;;;13.52;9.43;;;;;;;;;;5096322;28;20203;-70
2022/04/14 14:22:04;;;;;;;14.48;8.50;;;;;;;;;;5096494;28;20230;-70
2022/04/14 14:24:32;;;;;;;16.15;11.27;;;;;;;;;;5096432;28;20203;-70
2022/04/14 14:26:58;;;;;;;17.25;10.70;;;;;;;;;;5096236;28;20214;-70
2022/04/14 14:29:24;;;;;;;13.27;8.98;;;;;;;;;;5095800;28;20211;-70
2022/04/14 14:31:50;;;;;;;20.85;14.02;;;;;;;;;;5096500;28;20230;-69